Bernice Lind — WDC8364 — position and weather

sailwx.info

Track history (hours):
 
Tides and Currents Weather Stations Pressure Air Temp Water Temp Dewpoint Dewpoint Depression Visibility Wind Speed Wind Dir Waves Ship Positions

Bernice Lind

Owner: Riverview Equipment Company, LLC, Petaluma, CA. More information available from US FCC via Universal Licensing System and Coast Guard Vessel Documentation Center.

Last reported at 2014-Nov-23 02:33 UTC. Time now 2014-Nov-23 17:05 UTC.
Position N 38°14' W 122°36'.

Length 18 m; draft 3.3 m.

Type: Towing. MMSI: 367085890.

Date/timePositionNaut miles runAvg speedWind from/ knotsBaromVisibWave heightAir tempDewpointWater temp
2014-Nov-23 02:33N 38°14' W 122°36'0 0.3
2014-Nov-23 01:32N 38°13' W 122°36'0 0.0
2014-Nov-23 00:32N 38°13' W 122°36'0 0.0
2014-Nov-22 23:33N 38°13' W 122°36'0 0.0
2014-Nov-22 22:32N 38°13' W 122°36'0 0.0
2014-Nov-22 21:33N 38°13' W 122°36'0 0.0
2014-Nov-22 20:33N 38°13' W 122°36'1 0.7
2014-Nov-22 19:33N 38°13' W 122°35'3 3.4
2014-Nov-22 18:33N 38°11' W 122°32'4 4.0
2014-Nov-22 17:33N 38°07' W 122°30'5 3.8
2014-Nov-22 16:18N 38°04' W 122°26'4 5.1
2014-Nov-22 15:33N 38°00' W 122°26'5 5.0
2014-Nov-22 14:33N 37°55' W 122°27'4 4.2
2014-Nov-22 13:33N 37°52' W 122°24'5 4.7
2014-Nov-22 12:33N 37°47' W 122°23'0 0.1
2014-Nov-22 11:33N 37°47' W 122°23'4 3.7
2014-Nov-22 10:33N 37°51' W 122°24'5 5.2
2014-Nov-22 09:33N 37°56' W 122°26'5 4.8
2014-Nov-22 08:33N 38°01' W 122°25'5 4.5
2014-Nov-22 07:33N 38°05' W 122°26'3 3.4
2014-Nov-22 06:33N 38°07' W 122°30'4 3.5
2014-Nov-22 05:33N 38°10' W 122°33'3 2.5
2014-Nov-22 04:33N 38°12' W 122°34'2 1.9
2014-Nov-22 03:33N 38°13' W 122°36'0 0.4
2014-Nov-22 02:33N 38°13' W 122°36'0 0.0
2014-Nov-22 01:33N 38°13' W 122°36'0 0.0
2014-Nov-22 00:33N 38°13' W 122°36'0 0.1
2014-Nov-21 23:28N 38°13' W 122°36'0 0.0
2014-Nov-21 22:33N 38°13' W 122°36'0 0.0
2014-Nov-21 21:31N 38°13' W 122°36'0 0.0
2014-Nov-21 20:33N 38°13' W 122°36'0 0.0
2014-Nov-21 19:33N 38°13' W 122°36'2 1.7
2014-Nov-21 18:33N 38°12' W 122°35'3 3.0
2014-Nov-21 17:33N 38°10' W 122°32'3 3.2
2014-Nov-21 16:29N 38°07' W 122°30'2 2.2
2014-Nov-21 15:29N 38°07' W 122°28'3 2.9
2014-Nov-21 14:33N 38°04' W 122°26'3 3.1
2014-Nov-21 13:33N 38°01' W 122°26'3 2.8
2014-Nov-21 12:33N 37°58' W 122°26'2 1.9
2014-Nov-21 11:33N 37°57' W 122°27'3 2.5
2014-Nov-21 10:33N 37°54' W 122°26'3 3.3
2014-Nov-21 09:33N 37°51' W 122°25'5 4.9
2014-Nov-21 08:33N 37°46' W 122°23'0 0.4
2014-Nov-21 07:34N 37°46' W 122°23'0 0.0
2014-Nov-21 06:33N 37°46' W 122°23'0 0.0
2014-Nov-21 05:33N 37°46' W 122°23'0 0.0
2014-Nov-21 04:25N 37°46' W 122°23'0 0.1
2014-Nov-21 03:33N 37°46' W 122°23'0 0.0
2014-Nov-21 02:33N 37°46' W 122°23'0 0.0
2014-Nov-21 01:33N 37°46' W 122°23'0 0.0
2014-Nov-21 00:33N 37°46' W 122°23'0 0.0
2014-Nov-20 23:33N 37°46' W 122°23'0 0.0
2014-Nov-20 22:33N 37°46' W 122°23'0 0.0
2014-Nov-20 21:33N 37°46' W 122°23'0 0.0
2014-Nov-20 20:33N 37°46' W 122°23'2 0.3
2014-Nov-20 13:06N 37°45' W 122°21'0 0.0
2014-Nov-20 10:14N 37°45' W 122°21'2 2.2
2014-Nov-20 09:33N 37°46' W 122°23'1 1.2
2014-Nov-20 08:33N 37°45' W 122°22'0 0.5
2014-Nov-20 07:33N 37°45' W 122°21'0 0.1
2014-Nov-20 06:33N 37°45' W 122°21'2 1.8
2014-Nov-20 05:33N 37°46' W 122°23'2 1.7
2014-Nov-20 04:33N 37°45' W 122°21'0 0.0
2014-Nov-20 03:33N 37°45' W 122°21'2 1.9
2014-Nov-20 02:33N 37°46' W 122°23'2 1.7
2014-Nov-20 01:33N 37°45' W 122°21'0 0.0
2014-Nov-20 00:33N 37°45' W 122°21'0 0.2
2014-Nov-19 23:33N 37°45' W 122°21'0 0.2
2014-Nov-19 22:33N 37°45' W 122°22'0 0.3
2014-Nov-19 21:33N 37°45' W 122°21'0 0.0
2014-Nov-19 20:33N 37°45' W 122°21'2 1.6
2014-Nov-19 19:33N 37°46' W 122°22'1 1.1
2014-Nov-19 18:33N 37°45' W 122°22'1 0.6
2014-Nov-19 17:33N 37°45' W 122°21'0 0.1
2014-Nov-19 16:33N 37°45' W 122°21'2 1.9
2014-Nov-19 15:33N 37°46' W 122°23'0 0.0
2014-Nov-19 14:33N 37°46' W 122°23'0 0.0
2014-Nov-19 13:33N 37°46' W 122°23'0 0.0
2014-Nov-19 12:33N 37°46' W 122°23'1 0.3
2014-Nov-19 09:33N 37°46' W 122°22'5 4.8
2014-Nov-19 08:26N 37°51' W 122°24'6 6.4
2014-Nov-19 07:32N 37°56' W 122°26'5 5.3
2014-Nov-19 06:33N 38°01' W 122°23'7 5.0
2014-Nov-19 05:11N 38°04' W 122°15'2 2.4
2014-Nov-19 04:31N 38°06' W 122°16'  
2014-Nov-16 01:20N 38°04' W 122°15'6 6.1
2014-Nov-16 00:23N 38°02' W 122°21'4 4.9
2014-Nov-15 23:34N 37°59' W 122°25'6 6.2
2014-Nov-15 22:34N 37°53' W 122°24'6 6.0
2014-Nov-15 21:34N 37°48' W 122°20'5 4.9
2014-Nov-15 20:34N 37°46' W 122°14'3 3.3
2014-Nov-15 19:33N 37°48' W 122°18'4 0.7
2014-Nov-15 14:21N 37°47' W 122°23'4 5.6
2014-Nov-15 13:33N 37°51' W 122°24'4 4.1
2014-Nov-15 12:34N 37°55' W 122°25'13 4.2
2014-Nov-15 09:33N 38°04' W 122°15'2 1.5
2014-Nov-15 08:30N 38°06' W 122°16'0 0.0
2014-Nov-14 15:05N 38°06' W 122°16'0 0.0
2014-Nov-14 02:33N 38°06' W 122°16'0 0.0
2014-Nov-13 23:14N 38°06' W 122°16'0 0.0
2014-Nov-13 16:20N 38°06' W 122°16'  
Track history (hours):
 
Tides and Currents Weather Stations Pressure Air Temp Water Temp Dewpoint Dewpoint Depression Visibility Wind Speed Wind Dir Waves Ship Positions

Bernice Lind

Owner: Riverview Equipment Company, LLC, Petaluma, CA. More information available from US FCC via Universal Licensing System and Coast Guard Vessel Documentation Center.

Last reported at 2014-Nov-23 02:33 UTC. Time now 2014-Nov-23 17:05 UTC.
Position N 38°14' W 122°36'.

Length 18 m; draft 3.3 m.

Type: Towing. MMSI: 367085890.

Date/timePositionNaut miles runAvg speedWind from/ knotsBaromVisibWave heightAir tempDewpointWater temp
2014-Nov-23 02:33N 38°14' W 122°36'0 0.3
2014-Nov-23 01:32N 38°13' W 122°36'0 0.0
2014-Nov-23 00:32N 38°13' W 122°36'0 0.0
2014-Nov-22 23:33N 38°13' W 122°36'0 0.0
2014-Nov-22 22:32N 38°13' W 122°36'0 0.0
2014-Nov-22 21:33N 38°13' W 122°36'0 0.0
2014-Nov-22 20:33N 38°13' W 122°36'1 0.7
2014-Nov-22 19:33N 38°13' W 122°35'3 3.4
2014-Nov-22 18:33N 38°11' W 122°32'4 4.0
2014-Nov-22 17:33N 38°07' W 122°30'5 3.8
2014-Nov-22 16:18N 38°04' W 122°26'4 5.1
2014-Nov-22 15:33N 38°00' W 122°26'5 5.0
2014-Nov-22 14:33N 37°55' W 122°27'4 4.2
2014-Nov-22 13:33N 37°52' W 122°24'5 4.7
2014-Nov-22 12:33N 37°47' W 122°23'0 0.1
2014-Nov-22 11:33N 37°47' W 122°23'4 3.7
2014-Nov-22 10:33N 37°51' W 122°24'5 5.2
2014-Nov-22 09:33N 37°56' W 122°26'5 4.8
2014-Nov-22 08:33N 38°01' W 122°25'5 4.5
2014-Nov-22 07:33N 38°05' W 122°26'3 3.4
2014-Nov-22 06:33N 38°07' W 122°30'4 3.5
2014-Nov-22 05:33N 38°10' W 122°33'3 2.5
2014-Nov-22 04:33N 38°12' W 122°34'2 1.9
2014-Nov-22 03:33N 38°13' W 122°36'0 0.4
2014-Nov-22 02:33N 38°13' W 122°36'0 0.0
2014-Nov-22 01:33N 38°13' W 122°36'0 0.0
2014-Nov-22 00:33N 38°13' W 122°36'0 0.1
2014-Nov-21 23:28N 38°13' W 122°36'0 0.0
2014-Nov-21 22:33N 38°13' W 122°36'0 0.0
2014-Nov-21 21:31N 38°13' W 122°36'0 0.0
2014-Nov-21 20:33N 38°13' W 122°36'0 0.0
2014-Nov-21 19:33N 38°13' W 122°36'2 1.7
2014-Nov-21 18:33N 38°12' W 122°35'3 3.0
2014-Nov-21 17:33N 38°10' W 122°32'3 3.2
2014-Nov-21 16:29N 38°07' W 122°30'2 2.2
2014-Nov-21 15:29N 38°07' W 122°28'3 2.9
2014-Nov-21 14:33N 38°04' W 122°26'3 3.1
2014-Nov-21 13:33N 38°01' W 122°26'3 2.8
2014-Nov-21 12:33N 37°58' W 122°26'2 1.9
2014-Nov-21 11:33N 37°57' W 122°27'3 2.5
2014-Nov-21 10:33N 37°54' W 122°26'3 3.3
2014-Nov-21 09:33N 37°51' W 122°25'5 4.9
2014-Nov-21 08:33N 37°46' W 122°23'0 0.4
2014-Nov-21 07:34N 37°46' W 122°23'0 0.0
2014-Nov-21 06:33N 37°46' W 122°23'0 0.0
2014-Nov-21 05:33N 37°46' W 122°23'0 0.0
2014-Nov-21 04:25N 37°46' W 122°23'0 0.1
2014-Nov-21 03:33N 37°46' W 122°23'0 0.0
2014-Nov-21 02:33N 37°46' W 122°23'0 0.0
2014-Nov-21 01:33N 37°46' W 122°23'0 0.0
2014-Nov-21 00:33N 37°46' W 122°23'0 0.0
2014-Nov-20 23:33N 37°46' W 122°23'0 0.0
2014-Nov-20 22:33N 37°46' W 122°23'0 0.0
2014-Nov-20 21:33N 37°46' W 122°23'0 0.0
2014-Nov-20 20:33N 37°46' W 122°23'2 0.3
2014-Nov-20 13:06N 37°45' W 122°21'0 0.0
2014-Nov-20 10:14N 37°45' W 122°21'2 2.2
2014-Nov-20 09:33N 37°46' W 122°23'1 1.2
2014-Nov-20 08:33N 37°45' W 122°22'0 0.5
2014-Nov-20 07:33N 37°45' W 122°21'0 0.1
2014-Nov-20 06:33N 37°45' W 122°21'2 1.8
2014-Nov-20 05:33N 37°46' W 122°23'2 1.7
2014-Nov-20 04:33N 37°45' W 122°21'0 0.0
2014-Nov-20 03:33N 37°45' W 122°21'2 1.9
2014-Nov-20 02:33N 37°46' W 122°23'2 1.7
2014-Nov-20 01:33N 37°45' W 122°21'0 0.0
2014-Nov-20 00:33N 37°45' W 122°21'0 0.2
2014-Nov-19 23:33N 37°45' W 122°21'0 0.2
2014-Nov-19 22:33N 37°45' W 122°22'0 0.3
2014-Nov-19 21:33N 37°45' W 122°21'0 0.0
2014-Nov-19 20:33N 37°45' W 122°21'2 1.6
2014-Nov-19 19:33N 37°46' W 122°22'1 1.1
2014-Nov-19 18:33N 37°45' W 122°22'1 0.6
2014-Nov-19 17:33N 37°45' W 122°21'0 0.1
2014-Nov-19 16:33N 37°45' W 122°21'2 1.9
2014-Nov-19 15:33N 37°46' W 122°23'0 0.0
2014-Nov-19 14:33N 37°46' W 122°23'0 0.0
2014-Nov-19 13:33N 37°46' W 122°23'0 0.0
2014-Nov-19 12:33N 37°46' W 122°23'1 0.3
2014-Nov-19 09:33N 37°46' W 122°22'5 4.8
2014-Nov-19 08:26N 37°51' W 122°24'6 6.4
2014-Nov-19 07:32N 37°56' W 122°26'5 5.3
2014-Nov-19 06:33N 38°01' W 122°23'7 5.0
2014-Nov-19 05:11N 38°04' W 122°15'2 2.4
2014-Nov-19 04:31N 38°06' W 122°16'  
2014-Nov-16 01:20N 38°04' W 122°15'6 6.1
2014-Nov-16 00:23N 38°02' W 122°21'4 4.9
2014-Nov-15 23:34N 37°59' W 122°25'6 6.2
2014-Nov-15 22:34N 37°53' W 122°24'6 6.0
2014-Nov-15 21:34N 37°48' W 122°20'5 4.9
2014-Nov-15 20:34N 37°46' W 122°14'3 3.3
2014-Nov-15 19:33N 37°48' W 122°18'4 0.7
2014-Nov-15 14:21N 37°47' W 122°23'4 5.6
2014-Nov-15 13:33N 37°51' W 122°24'4 4.1
2014-Nov-15 12:34N 37°55' W 122°25'13 4.2
2014-Nov-15 09:33N 38°04' W 122°15'2 1.5
2014-Nov-15 08:30N 38°06' W 122°16'0 0.0
2014-Nov-14 15:05N 38°06' W 122°16'0 0.0
2014-Nov-14 02:33N 38°06' W 122°16'0 0.0
2014-Nov-13 23:14N 38°06' W 122°16'0 0.0
2014-Nov-13 16:20N 38°06' W 122°16'  

Dump ship's entire track history